createdAt,value
2022-10-19T00:23:05.425Z,22.97
2022-10-19T00:43:05.418Z,22.97
2022-10-19T01:03:05.411Z,22.97
2022-10-19T01:43:05.402Z,22.97
2022-10-19T02:03:05.118Z,22.97
2022-10-19T02:23:05.374Z,22.97
2022-10-19T02:43:05.370Z,22.97
2022-10-19T03:03:05.081Z,22.97
2022-10-19T03:23:05.332Z,22.97
2022-10-19T04:03:05.311Z,22.97
2022-10-19T04:23:05.378Z,22.97
2022-10-19T04:43:05.286Z,22.97
2022-10-19T05:03:05.306Z,22.97
2022-10-19T05:23:07.092Z,22.97
2022-10-19T05:43:05.011Z,22.97
2022-10-19T06:03:05.267Z,22.97
2022-10-19T06:23:05.251Z,22.97
2022-10-19T06:43:05.209Z,22.97
2022-10-19T07:03:05.221Z,22.97
2022-10-19T07:23:05.202Z,22.97
2022-10-19T07:43:05.193Z,22.97
2022-10-19T08:03:43.599Z,22.97
2022-10-19T08:23:05.158Z,22.97
2022-10-19T08:43:04.894Z,22.98
2022-10-19T09:23:06.780Z,22.97
2022-10-19T09:43:05.043Z,22.98
2022-10-19T10:23:04.981Z,22.98
2022-10-19T10:43:04.937Z,22.98
2022-10-19T11:03:04.703Z,22.98
2022-10-19T11:23:04.872Z,22.97
2022-10-19T11:43:04.824Z,22.97
2022-10-19T12:03:04.807Z,22.97
2022-10-19T12:23:04.808Z,22.96
2022-10-19T13:03:04.688Z,22.95
2022-10-19T13:23:04.659Z,22.93
2022-10-19T13:43:04.649Z,22.92
2022-10-19T14:03:05.513Z,22.91
2022-10-19T14:23:04.577Z,22.9
2022-10-19T14:43:04.547Z,22.89
2022-10-19T15:03:04.517Z,22.88
2022-10-19T15:23:04.512Z,22.87
2022-10-19T15:43:04.445Z,22.86
2022-10-19T16:03:04.424Z,22.86
2022-10-19T16:23:04.390Z,22.85
2022-10-19T16:43:04.108Z,22.85
2022-10-19T17:03:04.353Z,22.84
2022-10-19T17:23:04.335Z,22.84
2022-10-19T17:43:04.330Z,22.84
2022-10-19T18:03:04.317Z,22.84
2022-10-19T18:23:04.252Z,22.84
2022-10-19T18:43:04.251Z,22.84
2022-10-19T19:03:04.226Z,22.84
2022-10-19T19:23:04.203Z,22.83
2022-10-19T19:43:03.938Z,22.83
2022-10-19T20:03:04.177Z,22.83
2022-10-19T20:23:04.133Z,22.83
2022-10-19T20:43:04.150Z,22.83
2022-10-19T21:03:03.884Z,22.83
2022-10-19T21:23:04.124Z,22.83
2022-10-19T21:43:03.829Z,22.83
2022-10-19T22:03:04.129Z,22.82
2022-10-19T22:23:03.807Z,22.82
2022-10-19T22:43:06.086Z,22.82
2022-10-19T23:03:04.056Z,22.82
2022-10-19T23:23:04.040Z,22.82
2022-10-19T23:43:04.024Z,22.82
